Time;durP1;ratioP1;P1;durP2;ratioP2;P2;SDS_P1;SDS_P2;PMS_P1;PMS_P2;Temp;Humidity;BMP_temperature;BMP_pressure;BME280_temperature;BME280_humidity;BME280_pressure;Samples;Min_cycle;Max_cycle;Signal;HPM_P1;HPM_P2
2023/10/26 00:00:02;;;;;;;139.57;16.30;;;;;;;10.72;100.00;98875.05;4800405;60;1145129;-72
2023/10/26 00:05:10;;;;;;;101.27;13.67;;;;;;;10.73;100.00;98875.88;4760862;60;1145139;-74
2023/10/26 00:10:15;;;;;;;100.87;15.50;;;;;;;10.76;100.00;98878.21;4776115;59;1145096;-74
2023/10/26 00:15:21;;;;;;;79.03;12.90;;;;;;;10.72;100.00;98881.66;4717963;60;1145314;-75
2023/10/26 00:20:27;;;;;;;72.92;11.25;;;;;;;10.67;100.00;98884.47;4731192;59;1143382;-73
2023/10/26 00:25:32;;;;;;;15.58;9.23;;;;;;;10.57;100.00;98883.25;4836527;59;1143122;-73
2023/10/26 00:30:38;;;;;;;45.27;10.23;;;;;;;10.50;100.00;98867.71;4880260;57;1141008;-71
2023/10/26 00:35:44;;;;;;;59.77;11.40;;;;;;;10.44;100.00;98859.08;4748669;59;1143078;-74
2023/10/26 00:40:50;;;;;;;50.73;10.97;;;;;;;10.36;100.00;98855.09;4866708;57;1143027;-76
2023/10/26 00:45:56;;;;;;;35.20;11.25;;;;;;;10.33;100.00;98850.95;4847376;58;1143182;-72
2023/10/26 00:51:02;;;;;;;39.60;11.20;;;;;;;10.30;100.00;98855.22;4840611;58;1143238;-73
2023/10/26 00:56:11;;;;;;;22.83;11.67;;;;;;;10.31;100.00;98842.34;4852946;58;1143001;-72
2023/10/26 01:01:18;;;;;;;40.40;12.17;;;;;;;10.26;100.00;98831.91;4787314;59;1143012;-73
2023/10/26 01:06:24;;;;;;;56.20;11.30;;;;;;;10.19;100.00;98827.27;4773887;59;1143118;-74
2023/10/26 01:11:32;;;;;;;46.13;12.10;;;;;;;10.18;100.00;98832.22;4756887;59;1142988;-73
2023/10/26 01:16:38;;;;;;;36.83;13.68;;;;;;;10.20;100.00;98837.35;4787640;59;1142977;-71
2023/10/26 01:21:52;;;;;;;48.40;13.73;;;;;;;10.17;100.00;98831.85;4765688;59;1143627;-74
2023/10/26 01:26:58;;;;;;;37.77;13.20;;;;;;;10.19;100.00;98823.31;4767550;59;1143176;-76
2023/10/26 01:32:04;;;;;;;34.60;13.93;;;;;;;10.20;100.00;98818.86;4715286;59;1143168;-74
2023/10/26 01:37:09;;;;;;;38.57;14.47;;;;;;;10.27;100.00;98809.78;4707928;60;1143153;-72
2023/10/26 01:42:15;;;;;;;28.87;14.07;;;;;;;10.24;100.00;98813.56;4867792;59;1143011;-74
2023/10/26 01:47:21;;;;;;;23.77;14.97;;;;;;;10.21;100.00;98805.98;4800120;60;1143076;-75
2023/10/26 01:52:27;;;;;;;30.23;15.58;;;;;;;10.18;100.00;98798.34;4807344;59;1142923;-74
2023/10/26 01:57:33;;;;;;;39.47;17.23;;;;;;;10.08;100.00;98790.52;4810726;59;1142944;-73
2023/10/26 02:02:38;;;;;;;48.90;18.82;;;;;;;10.03;100.00;98787.54;4880604;59;1143391;-72
2023/10/26 02:07:45;;;;;;;43.43;20.17;;;;;;;9.99;100.00;98783.55;4982983;57;1142920;-74
2023/10/26 02:12:51;;;;;;;38.27;20.00;;;;;;;9.96;100.00;98769.83;4971972;57;1141179;-75
2023/10/26 02:17:56;;;;;;;36.73;20.27;;;;;;;9.94;100.00;98755.95;4803520;60;1141232;-72
2023/10/26 02:23:03;;;;;;;45.03;21.10;;;;;;;9.88;100.00;98750.33;4790781;59;1140799;-71
2023/10/26 02:28:13;;;;;;;48.53;18.43;;;;;;;9.83;100.00;98749.14;4787105;59;1140953;-73
2023/10/26 02:33:16;;;;;;;43.92;19.50;;;;;;;9.80;100.00;98749.45;4857834;57;1140897;-70
2023/10/26 02:38:22;;;;;;;41.48;20.20;;;;;;;9.77;100.00;98749.78;4982334;57;1141087;-75
2023/10/26 02:43:28;;;;;;;42.35;21.00;;;;;;;9.75;100.00;98751.26;4862741;58;1140961;-70
2023/10/26 02:48:35;;;;;;;33.27;16.73;;;;;;;9.77;100.00;98747.14;4996900;58;1140985;-71
2023/10/26 02:53:42;;;;;;;25.47;17.03;;;;;;;9.77;100.00;98756.38;4934582;58;1141729;-75
2023/10/26 02:58:47;;;;;;;37.97;17.63;;;;;;;9.73;100.00;98743.16;4903286;57;1141045;-74
2023/10/26 03:03:53;;;;;;;23.47;12.97;;;;;;;9.70;100.00;98735.05;4908191;57;1141060;-71
2023/10/26 03:08:58;;;;;;;23.33;14.90;;;;;;;9.72;100.00;98725.66;4926384;57;1141109;-69
2023/10/26 03:14:04;;;;;;;27.23;16.73;;;;;;;9.69;100.00;98722.84;4912963;57;1140880;-69
2023/10/26 03:19:10;;;;;;;32.37;16.90;;;;;;;9.63;100.00;98717.34;4790779;59;1141278;-72
2023/10/26 03:24:16;;;;;;;37.35;19.35;;;;;;;9.66;100.00;98724.46;4721576;60;1141493;-70
2023/10/26 03:29:21;;;;;;;50.47;23.17;;;;;;;9.64;100.00;98712.41;4814209;60;1141095;-69
2023/10/26 03:34:27;;;;;;;44.65;21.73;;;;;;;9.63;100.00;98699.70;4787335;59;1267233;-70
2023/10/26 03:39:34;;;;;;;41.25;20.80;;;;;;;9.66;100.00;98698.06;4785319;59;1141559;-70
2023/10/26 03:44:40;;;;;;;35.78;21.62;;;;;;;9.69;100.00;98691.16;4887687;59;1140865;-72
2023/10/26 03:49:51;;;;;;;43.78;23.62;;;;;;;9.73;100.00;98689.03;4990424;57;1141138;-71
2023/10/26 03:54:54;;;;;;;44.27;27.30;;;;;;;9.76;100.00;98694.01;4986762;58;1140863;-69
2023/10/26 04:00:00;;;;;;;41.60;22.87;;;;;;;9.76;100.00;98687.41;4922890;57;1140976;-71
2023/10/26 04:05:06;;;;;;;36.87;23.23;;;;;;;9.75;100.00;98680.47;4893386;57;1140916;-72
2023/10/26 04:10:11;;;;;;;44.60;25.70;;;;;;;9.74;100.00;98674.36;4855151;57;1141190;-68
2023/10/26 04:15:17;;;;;;;48.90;28.15;;;;;;;9.72;100.00;98668.91;4790622;59;1140962;-72
2023/10/26 04:20:23;;;;;;;43.13;25.55;;;;;;;9.72;100.00;98660.98;4895471;57;1149715;-71
2023/10/26 04:25:29;;;;;;;41.55;23.45;;;;;;;9.74;100.00;98655.06;4713018;60;1140820;-72
2023/10/26 04:30:35;;;;;;;40.30;21.30;;;;;;;9.71;100.00;98636.40;4890060;58;1140915;-72
2023/10/26 04:35:46;;;;;;;39.63;23.22;;;;;;;9.73;100.00;98630.96;4892654;58;1140637;-68
2023/10/26 04:40:52;;;;;;;40.37;24.00;;;;;;;9.70;100.00;98620.23;4793958;58;1141042;-69
2023/10/26 04:45:57;;;;;;;45.63;23.53;;;;;;;9.69;100.00;98614.61;4715146;60;1140859;-72
2023/10/26 04:51:03;;;;;;;37.20;22.07;;;;;;;9.70;100.00;98609.67;4792776;59;1140561;-72
2023/10/26 04:56:11;;;;;;;38.27;23.47;;;;;;;9.67;100.00;98609.15;4879409;58;1141155;-71
2023/10/26 05:01:16;;;;;;;34.93;20.30;;;;;;;9.68;100.00;98606.36;4838250;58;1141946;-74
2023/10/26 05:06:22;;;;;;;35.87;21.93;;;;;;;9.65;100.00;98601.88;4735292;60;1141320;-73
2023/10/26 05:11:27;;;;;;;32.17;20.48;;;;;;;9.63;100.00;98598.08;4714747;59;1142093;-72
2023/10/26 05:16:33;;;;;;;33.33;19.17;;;;;;;9.63;100.00;98590.66;4744728;59;1140604;-74
2023/10/26 05:21:38;;;;;;;36.70;22.13;;;;;;;9.64;100.00;98584.39;4861669;57;1140787;-74
2023/10/26 05:26:44;;;;;;;29.50;19.77;;;;;;;9.69;100.00;98580.79;4859947;57;1140971;-73
2023/10/26 05:31:50;;;;;;;31.37;20.77;;;;;;;9.71;100.00;98573.05;4857026;58;1140983;-75
2023/10/26 05:36:55;;;;;;;32.20;19.07;;;;;;;9.73;100.00;98569.75;4901614;58;1140966;-70
2023/10/26 05:42:04;;;;;;;29.97;17.40;;;;;;;9.74;100.00;98571.41;4790015;60;1141069;-73
2023/10/26 05:47:08;;;;;;;31.50;19.10;;;;;;;9.75;100.00;98570.92;4924375;57;1140892;-75
2023/10/26 05:52:14;;;;;;;34.93;20.83;;;;;;;9.72;100.00;98563.31;4833963;58;1141173;-73
2023/10/26 05:57:20;;;;;;;35.57;20.83;;;;;;;9.74;100.00;98571.91;4861859;58;1141012;-73
2023/10/26 06:02:25;;;;;;;48.93;25.90;;;;;;;9.75;100.00;98570.92;4878934;58;1140833;-73
2023/10/26 06:07:31;;;;;;;47.60;24.77;;;;;;;9.73;100.00;98563.65;4705719;60;1140860;-75
2023/10/26 06:12:37;;;;;;;45.55;25.05;;;;;;;9.71;100.00;98562.98;4712485;60;1140848;-72
2023/10/26 06:17:43;;;;;;;45.13;25.27;;;;;;;9.73;100.00;98561.01;4771431;59;1140791;-75
2023/10/26 06:22:48;;;;;;;44.07;25.77;;;;;;;9.72;100.00;98560.67;4792049;59;1140622;-71
2023/10/26 06:27:54;;;;;;;45.30;24.73;;;;;;;9.70;100.00;98558.69;4732362;59;1140925;-74
2023/10/26 06:33:00;;;;;;;46.50;25.17;;;;;;;9.71;100.00;98555.06;4711714;59;1141230;-72
2023/10/26 06:38:06;;;;;;;44.80;25.48;;;;;;;9.72;100.00;98554.08;4735622;59;1140853;-76
2023/10/26 06:43:11;;;;;;;42.67;23.67;;;;;;;9.71;100.00;98547.97;4967338;57;1140927;-74
2023/10/26 06:48:24;;;;;;;32.50;18.90;;;;;;;9.70;100.00;98545.00;4914276;57;1141155;-74
2023/10/26 06:53:25;;;;;;;35.77;22.60;;;;;;;9.70;100.00;98545.00;4888045;57;1141033;-75
2023/10/26 06:58:31;;;;;;;35.40;20.23;;;;;;;9.70;100.00;98535.75;4748656;59;1141274;-74
2023/10/26 07:03:37;;;;;;;31.23;18.67;;;;;;;9.71;100.00;98540.05;4750294;60;1141050;-73
2023/10/26 07:08:43;;;;;;;30.60;19.70;;;;;;;9.72;100.00;98535.11;4881907;58;1141078;-74
2023/10/26 07:13:49;;;;;;;28.33;17.93;;;;;;;9.75;100.00;98536.11;4884421;58;1141026;-74
2023/10/26 07:18:54;;;;;;;25.57;16.97;;;;;;;9.77;100.00;98533.31;4894979;57;1140888;-71
2023/10/26 07:24:00;;;;;;;24.03;16.50;;;;;;;9.77;100.00;98530.17;4886501;58;1141155;-76
2023/10/26 07:29:06;;;;;;;30.10;20.07;;;;;;;9.80;100.00;98535.59;4898387;57;1140954;-71
2023/10/26 07:34:12;;;;;;;27.67;17.97;;;;;;;9.82;100.00;98533.12;4883183;57;1140783;-73
2023/10/26 07:39:17;;;;;;;33.10;19.13;;;;;;;9.83;100.00;98529.50;4904494;57;1140809;-72
2023/10/26 07:44:23;;;;;;;29.47;18.50;;;;;;;9.84;100.00;98536.44;4721065;60;1140966;-72
2023/10/26 07:49:29;;;;;;;28.33;18.47;;;;;;;9.86;100.00;98538.92;4713199;60;1141186;-73
2023/10/26 07:54:35;;;;;;;21.82;14.87;;;;;;;9.91;100.00;98530.52;4763386;60;1141028;-75
2023/10/26 07:59:41;;;;;;;27.15;17.67;;;;;;;9.94;100.00;98529.67;4791489;60;1141247;-71
2023/10/26 08:04:49;;;;;;;27.90;18.10;;;;;;;9.94;100.00;98529.67;4790873;59;1141046;-75
2023/10/26 08:09:56;;;;;;;26.57;17.20;;;;;;;9.97;100.00;98529.84;4809675;59;1140971;-72
2023/10/26 08:15:02;;;;;;;28.00;17.43;;;;;;;9.94;100.00;98533.63;4898459;57;1141228;-71
2023/10/26 08:20:08;;;;;;;28.30;18.67;;;;;;;9.93;100.00;98529.34;4790683;59;1140867;-76
2023/10/26 08:25:14;;;;;;;28.87;19.10;;;;;;;9.91;100.00;98522.60;4722407;59;1140739;-72
2023/10/26 08:30:20;;;;;;;29.80;18.60;;;;;;;9.93;100.00;98530.66;4754272;58;1140870;-74
2023/10/26 08:35:26;;;;;;;31.57;19.20;;;;;;;9.94;100.00;98522.25;4720424;59;1140802;-74
2023/10/26 08:40:32;;;;;;;29.07;18.80;;;;;;;9.96;100.00;98521.59;4912173;57;1141002;-71
2023/10/26 08:45:38;;;;;;;25.65;18.27;;;;;;;9.98;100.00;98527.05;4781967;59;1141109;-70
2023/10/26 08:50:48;;;;;;;24.85;16.60;;;;;;;10.02;100.00;98531.52;4856706;58;1140939;-74
2023/10/26 08:55:55;;;;;;;25.43;16.97;;;;;;;10.01;100.00;98529.36;4764738;58;1142897;-74
2023/10/26 09:01:04;;;;;;;20.67;14.23;;;;;;;10.04;100.00;98532.18;4892344;58;1143215;-74
2023/10/26 09:06:08;;;;;;;19.03;13.93;;;;;;;10.05;100.00;98528.05;4792288;59;1142937;-74
2023/10/26 09:11:22;;;;;;;20.30;13.38;;;;;;;10.07;100.00;98531.86;4838838;58;1143105;-75
2023/10/26 09:16:37;;;;;;;18.40;13.20;;;;;;;10.08;100.00;98530.34;4917520;57;1179826;-74
2023/10/26 09:21:56;;;;;;;16.33;12.20;;;;;;;10.12;100.00;98530.35;4991442;57;1143184;-75
2023/10/26 09:27:03;;;;;;;20.63;13.10;;;;;;;10.17;100.00;98533.83;4982941;56;1143559;-75
2023/10/26 09:32:09;;;;;;;16.10;12.10;;;;;;;10.19;100.00;98535.36;4876649;56;1143037;-74
2023/10/26 09:37:17;;;;;;;14.60;10.67;;;;;;;10.19;100.00;98526.11;4886175;58;1142875;-74
2023/10/26 09:42:22;;;;;;;18.87;10.63;;;;;;;10.23;100.00;98526.61;4865073;59;1142758;-70
2023/10/26 09:47:28;;;;;;;10.10;8.53;;;;;;;10.23;100.00;98523.97;4841932;59;1143159;-71
2023/10/26 09:52:35;;;;;;;14.13;10.50;;;;;;;10.23;100.00;98531.37;4834403;59;1141092;-75
2023/10/26 09:57:56;;;;;;;14.20;8.78;;;;;;;10.25;100.00;98527.24;4984923;57;1142917;-70
2023/10/26 10:03:17;;;;;;;10.67;8.80;;;;;;;10.27;100.00;98527.08;4996710;57;1140703;-74
2023/10/26 10:09:01;;;;;;;10.07;6.17;;;;;;;10.28;100.00;98520.31;4983221;57;1141019;-71
2023/10/26 10:14:07;;;;;;;10.90;7.67;;;;;;;10.32;100.00;98512.89;4966462;57;1140703;-73
2023/10/26 10:19:26;;;;;;;8.87;6.70;;;;;;;10.34;100.00;98513.55;4790469;59;1141240;-72
2023/10/26 10:24:49;;;;;;;11.50;7.33;;;;;;;10.40;100.00;98507.58;4791456;59;1138720;-76
2023/10/26 10:29:59;;;;;;;11.50;8.08;;;;;;;10.43;100.00;98506.76;4911913;57;1140999;-73
2023/10/26 10:35:08;;;;;;;12.87;8.20;;;;;;;10.45;100.00;98503.45;4786275;59;1141038;-72
2023/10/26 10:40:19;;;;;;;12.17;9.07;;;;;;;10.45;100.00;98504.78;4792624;60;1140928;-75
2023/10/26 10:45:25;;;;;;;14.47;9.03;;;;;;;10.44;100.00;98498.34;4708767;60;1140936;-74
2023/10/26 10:50:31;;;;;;;9.18;7.87;;;;;;;10.43;100.00;98500.16;4909213;56;1140964;-74
2023/10/26 10:55:36;;;;;;;10.20;8.48;;;;;;;10.42;100.00;98501.14;4921483;58;1138832;-73
2023/10/26 11:00:45;;;;;;;14.98;7.85;;;;;;;10.44;100.00;98499.66;4996930;57;1140995;-74
2023/10/26 11:05:51;;;;;;;35.30;29.33;;;;;;;10.45;100.00;98501.31;5006488;57;1141062;-73
2023/10/26 11:10:56;;;;;;;19.97;17.57;;;;;;;10.48;100.00;98499.16;4994328;58;1142920;-73
2023/10/26 11:16:02;;;;;;;27.10;15.90;;;;;;;10.52;100.00;98504.95;4918197;58;1142927;-69
2023/10/26 11:21:18;;;;;;;76.77;67.92;;;;;;;10.51;100.00;98499.33;4806778;58;1143916;-72
2023/10/26 11:26:23;;;;;;;25.25;22.58;;;;;;;10.52;100.00;98495.20;4809659;59;1143110;-73
2023/10/26 11:31:47;;;;;;;17.00;13.50;;;;;;;10.54;100.00;98501.13;4682239;59;1143024;-70
2023/10/26 11:36:48;;;;;;;22.02;14.13;;;;;;;10.58;100.00;98496.33;4682249;60;1142993;-71
2023/10/26 11:41:55;;;;;;;28.37;16.23;;;;;;;10.60;100.00;98494.84;4779261;59;1143463;-72
2023/10/26 11:47:02;;;;;;;20.27;13.27;;;;;;;10.61;100.00;98499.14;4743001;59;1143193;-75
2023/10/26 11:52:08;;;;;;;23.60;18.60;;;;;;;10.62;100.00;98501.61;4725792;58;1143096;-71
2023/10/26 11:57:13;;;;;;;25.73;17.93;;;;;;;10.61;100.00;98501.78;4789803;59;1142971;-73
2023/10/26 12:02:24;;;;;;;25.00;19.37;;;;;;;10.62;100.00;98495.50;4930627;57;1143025;-74
2023/10/26 12:07:26;;;;;;;20.57;13.80;;;;;;;10.64;100.00;98501.45;4912839;58;1142887;-71
2023/10/26 12:12:32;;;;;;;18.57;14.13;;;;;;;10.64;100.00;98498.31;4792030;59;1143203;-74
2023/10/26 12:17:38;;;;;;;12.18;9.43;;;;;;;10.61;100.00;98495.17;4795739;59;1143056;-74
2023/10/26 12:22:45;;;;;;;11.90;9.85;;;;;;;10.61;100.00;98489.88;4790870;59;1141164;-72
2023/10/26 12:27:50;;;;;;;12.05;10.55;;;;;;;10.62;100.00;98488.40;4728663;60;1163543;-71
2023/10/26 12:32:56;;;;;;;27.33;23.03;;;;;;;10.67;100.00;98484.77;4860380;58;1143083;-72
2023/10/26 12:38:01;;;;;;;10.57;9.13;;;;;;;10.74;100.00;98483.57;4810515;58;1143130;-76
2023/10/26 12:43:07;;;;;;;11.47;8.43;;;;;;;10.74;100.00;98488.86;4790876;59;1141210;-73
2023/10/26 12:48:12;;;;;;;20.40;10.20;;;;;;;10.74;100.00;98486.21;4916980;57;1141038;-73
2023/10/26 12:53:18;;;;;;;15.87;10.83;;;;;;;10.72;100.00;98495.63;4810314;59;1143401;-73
2023/10/26 12:58:25;;;;;;;14.17;11.57;;;;;;;10.71;100.00;98499.27;4790128;60;1142874;-71
2023/10/26 13:03:31;;;;;;;10.93;8.63;;;;;;;10.70;100.00;98499.44;4793534;59;1143660;-73
2023/10/26 13:08:37;;;;;;;19.97;11.83;;;;;;;10.72;100.00;98503.56;4943893;57;1140895;-73
2023/10/26 13:13:43;;;;;;;23.75;16.55;;;;;;;10.72;100.00;98504.89;4761727;59;1143263;-72
2023/10/26 13:18:49;;;;;;;13.50;9.25;;;;;;;10.75;100.00;98502.41;4925173;57;1143145;-75
2023/10/26 13:23:54;;;;;;;10.83;8.50;;;;;;;10.73;100.00;98504.39;4999617;57;1141010;-74
2023/10/26 13:29:00;;;;;;;16.90;11.10;;;;;;;10.71;100.00;98501.91;4763487;58;1141114;-74
2023/10/26 13:34:07;;;;;;;17.80;13.13;;;;;;;10.74;100.00;98502.91;4797613;59;1143033;-75
2023/10/26 13:39:12;;;;;;;23.50;16.30;;;;;;;10.77;100.00;98505.22;4807771;59;1143257;-70
2023/10/26 13:44:18;;;;;;;26.40;18.83;;;;;;;10.80;100.00;98514.63;4650265;59;1143356;-71
2023/10/26 13:49:23;;;;;;;23.80;14.60;;;;;;;10.83;100.00;98512.98;4718587;60;1142855;-71
2023/10/26 13:54:29;;;;;;;47.73;28.50;;;;;;;10.85;100.00;98512.28;4771544;58;1143031;-73
2023/10/26 13:59:37;;;;;;;20.83;11.60;;;;;;;10.88;100.00;98513.27;4814704;58;1152285;-73
2023/10/26 14:04:43;;;;;;;12.47;9.23;;;;;;;10.89;100.00;98507.81;4795266;59;1143245;-72
2023/10/26 14:09:48;;;;;;;18.57;11.33;;;;;;;10.90;100.00;98509.97;4773693;59;1140918;-72
2023/10/26 14:14:54;;;;;;;33.13;20.27;;;;;;;10.89;100.00;98511.78;4787924;60;1143207;-69
2023/10/26 14:20:00;;;;;;;31.13;16.77;;;;;;;10.92;100.00;98525.17;4861132;57;1142947;-77
2023/10/26 14:25:06;;;;;;;44.03;23.20;;;;;;;10.96;100.00;98529.63;4793619;59;1143274;-74
2023/10/26 14:30:12;;;;;;;24.70;16.97;;;;;;;10.98;100.00;98525.83;4924310;57;1143337;-74
2023/10/26 14:35:18;;;;;;;16.33;10.17;;;;;;;10.98;100.00;98529.80;4772324;59;1142961;-70
2023/10/26 14:40:24;;;;;;;12.40;9.57;;;;;;;10.98;100.00;98531.12;4661662;59;1142980;-77
2023/10/26 14:45:29;;;;;;;12.63;8.60;;;;;;;10.96;100.00;98530.95;4678929;60;1140866;-75
2023/10/26 14:50:35;;;;;;;14.03;9.00;;;;;;;10.98;100.00;98530.30;4729289;60;1140989;-72
2023/10/26 14:55:42;;;;;;;12.15;9.20;;;;;;;10.99;100.00;98535.91;4810719;59;1141310;-75
2023/10/26 15:00:47;;;;;;;14.30;8.90;;;;;;;11.03;100.00;98526.12;4879289;57;1141527;-73
2023/10/26 15:05:53;;;;;;;12.82;9.10;;;;;;;11.08;100.00;98528.27;4919657;57;1140914;-77
2023/10/26 15:10:59;;;;;;;12.63;8.60;;;;;;;11.04;100.00;98537.03;4942976;57;1140834;-72
2023/10/26 15:16:05;;;;;;;11.87;8.23;;;;;;;11.01;100.00;98529.43;4916648;57;1140927;-73
2023/10/26 15:21:11;;;;;;;14.10;8.13;;;;;;;10.96;100.00;98531.78;4784833;60;1141093;-74
2023/10/26 15:26:16;;;;;;;14.70;9.13;;;;;;;10.98;100.00;98536.91;4932722;57;1140907;-75
2023/10/26 15:31:22;;;;;;;10.97;8.90;;;;;;;10.98;100.00;98539.55;4791880;59;1141268;-74
2023/10/26 15:36:27;;;;;;;12.13;8.37;;;;;;;11.00;100.00;98540.20;4781361;59;1140841;-75
2023/10/26 15:41:42;;;;;;;12.90;9.23;;;;;;;11.00;100.00;98542.86;4931079;57;1140825;-71
2023/10/26 15:46:42;;;;;;;11.18;8.55;;;;;;;11.01;100.00;98539.19;4897276;57;1140920;-74
2023/10/26 15:51:48;;;;;;;22.23;17.33;;;;;;;10.98;100.00;98547.48;4897318;58;1140924;-71
2023/10/26 15:56:54;;;;;;;24.00;10.88;;;;;;;10.93;100.00;98550.63;4934682;57;1142992;-74
2023/10/26 16:02:00;;;;;;;13.47;9.70;;;;;;;10.93;100.00;98553.27;4895313;57;1142842;-72
2023/10/26 16:07:05;;;;;;;18.47;10.07;;;;;;;11.01;100.00;98555.05;4792654;58;1141041;-76
2023/10/26 16:12:11;;;;;;;14.57;10.10;;;;;;;11.03;100.00;98557.04;4957458;58;1143138;-74
2023/10/26 16:17:17;;;;;;;13.63;9.57;;;;;;;11.00;100.00;98556.88;4808061;59;1142983;-74
2023/10/26 16:22:22;;;;;;;20.40;13.90;;;;;;;10.96;100.00;98567.98;4788493;60;1140984;-76
2023/10/26 16:27:28;;;;;;;13.75;10.13;;;;;;;10.93;100.00;98549.30;4868192;58;1143144;-77
2023/10/26 16:32:35;;;;;;;57.30;25.60;;;;;;;10.82;100.00;98561.57;4809387;60;1142983;-72
2023/10/26 16:37:41;;;;;;;27.33;15.77;;;;;;;10.73;100.00;98558.09;4907566;58;1143369;-82
2023/10/26 16:42:47;;;;;;;16.97;12.00;;;;;;;10.66;100.00;98558.95;4791518;60;1143125;-76
2023/10/26 16:47:53;;;;;;;23.47;14.95;;;;;;;10.72;100.00;98549.01;4809098;60;1143069;-73
2023/10/26 16:52:59;;;;;;;15.00;10.47;;;;;;;10.78;100.00;98548.34;4904679;57;1143087;-74
2023/10/26 16:58:06;;;;;;;20.20;12.90;;;;;;;10.85;100.00;98549.30;4789170;60;1143029;-74
2023/10/26 17:03:12;;;;;;;21.00;13.10;;;;;;;10.90;100.00;98546.99;4778755;59;1143222;-75
2023/10/26 17:08:19;;;;;;;16.27;11.53;;;;;;;10.99;100.00;98553.93;4916573;58;1142819;-73
2023/10/26 17:13:24;;;;;;;13.87;9.33;;;;;;;11.04;100.00;98541.00;4760260;60;1142805;-73
2023/10/26 17:18:30;;;;;;;24.23;13.77;;;;;;;11.04;100.00;98547.61;4789070;59;1141639;-72
2023/10/26 17:23:36;;;;;;;23.40;13.83;;;;;;;11.05;100.00;98538.69;4789296;59;1142800;-76
2023/10/26 17:28:41;;;;;;;49.97;22.23;;;;;;;11.06;100.00;98539.02;4782115;60;1143065;-75
2023/10/26 17:33:49;;;;;;;40.13;21.50;;;;;;;11.05;100.00;98537.86;4793146;58;1143039;-76
2023/10/26 17:38:55;;;;;;;32.10;19.63;;;;;;;11.04;100.00;98541.00;4905644;57;1143042;-72
2023/10/26 17:44:00;;;;;;;27.80;15.60;;;;;;;11.06;100.00;98546.13;4791683;60;1143065;-72
2023/10/26 17:49:06;;;;;;;14.25;10.40;;;;;;;11.03;100.00;98542.48;4780361;59;1143274;-75
2023/10/26 17:54:15;;;;;;;13.20;9.37;;;;;;;10.97;100.00;98545.83;4916335;57;1142896;-73
2023/10/26 17:59:21;;;;;;;13.67;9.33;;;;;;;10.90;100.00;98542.53;4809133;59;1141115;-76
2023/10/26 18:04:26;;;;;;;9.73;7.43;;;;;;;10.86;100.00;98546.99;4852697;57;1140798;-76
2023/10/26 18:09:33;;;;;;;6.63;5.93;;;;;;;10.84;100.00;98547.19;4920468;57;1139446;-71
2023/10/26 18:14:39;;;;;;;9.03;6.90;;;;;;;10.80;100.00;98543.72;4789456;59;1138651;-73
2023/10/26 18:19:44;;;;;;;10.13;7.05;;;;;;;10.76;100.00;98542.40;4872485;57;1138812;-76
2023/10/26 18:24:50;;;;;;;14.73;7.10;;;;;;;10.73;100.00;98555.45;4776173;60;1141013;-73
2023/10/26 18:29:57;;;;;;;8.68;6.55;;;;;;;10.70;100.00;98554.95;4924552;58;1141174;-72
2023/10/26 18:35:04;;;;;;;11.80;6.53;;;;;;;10.63;100.00;98561.42;4790416;59;1139642;-77
2023/10/26 18:40:11;;;;;;;14.40;8.77;;;;;;;10.62;100.00;98566.38;4879664;57;1141311;-74
2023/10/26 18:45:17;;;;;;;19.60;12.07;;;;;;;10.67;100.00;98565.39;4896603;57;1141272;-74
2023/10/26 18:50:22;;;;;;;11.60;7.30;;;;;;;10.66;100.00;98576.96;4761378;60;1143041;-75
2023/10/26 18:55:31;;;;;;;10.47;6.07;;;;;;;10.63;100.00;98583.89;4899543;58;1141184;-75
2023/10/26 19:00:39;;;;;;;16.37;10.07;;;;;;;10.58;100.00;98585.70;4731824;59;1140941;-73
2023/10/26 19:05:46;;;;;;;13.43;9.10;;;;;;;10.56;100.00;98585.53;4758065;59;1143459;-73
2023/10/26 19:10:52;;;;;;;13.85;10.18;;;;;;;10.56;100.00;98585.53;4783963;59;1141012;-73
2023/10/26 19:15:58;;;;;;;11.50;7.93;;;;;;;10.57;100.00;98597.77;4730124;59;1143214;-77
2023/10/26 19:21:04;;;;;;;20.60;13.23;;;;;;;10.55;100.00;98599.75;4737609;59;1141297;-78
2023/10/26 19:26:10;;;;;;;25.73;14.73;;;;;;;10.53;100.00;98599.94;4730560;59;1143072;-74
2023/10/26 19:31:16;;;;;;;14.70;9.37;;;;;;;10.51;100.00;98601.92;4795426;59;1143101;-74
2023/10/26 19:36:21;;;;;;;17.32;10.05;;;;;;;10.46;100.00;98604.71;4809622;59;1141157;-75
2023/10/26 19:41:27;;;;;;;21.13;13.20;;;;;;;10.40;100.00;98598.75;4824003;59;1143206;-76
2023/10/26 19:46:33;;;;;;;24.97;16.10;;;;;;;10.39;100.00;98611.14;4808177;59;1143025;-77
2023/10/26 19:51:38;;;;;;;15.40;9.37;;;;;;;10.40;100.00;98613.28;4749206;60;1143017;-76
2023/10/26 19:56:45;;;;;;;26.67;14.43;;;;;;;10.37;100.00;98611.83;4808580;60;1141212;-73
2023/10/26 20:01:51;;;;;;;17.32;8.93;;;;;;;10.33;100.00;98613.63;4789857;60;1142933;-76
2023/10/26 20:06:58;;;;;;;14.45;8.58;;;;;;;10.31;100.00;98611.64;4790213;59;1141116;-77
2023/10/26 20:12:04;;;;;;;11.00;7.73;;;;;;;10.30;100.00;98616.09;4797674;59;1141246;-71
2023/10/26 20:17:10;;;;;;;29.50;15.23;;;;;;;10.32;100.00;98618.58;4901463;58;1259238;-77
2023/10/26 20:22:15;;;;;;;23.30;11.20;;;;;;;10.33;100.00;98613.13;4764221;60;1143184;-74
2023/10/26 20:27:21;;;;;;;24.20;10.90;;;;;;;10.38;100.00;98617.44;4910932;57;1143762;-76
2023/10/26 20:32:27;;;;;;;14.20;8.73;;;;;;;10.37;100.00;98617.11;4809090;59;1142956;-76
2023/10/26 20:37:34;;;;;;;13.27;7.60;;;;;;;10.33;100.00;98625.52;4789657;60;1141260;-74
2023/10/26 20:42:42;;;;;;;13.20;8.77;;;;;;;10.22;100.00;98625.34;4720796;60;1141034;-75
2023/10/26 20:47:47;;;;;;;8.88;7.62;;;;;;;10.20;100.00;98618.08;4808890;59;1141053;-74
2023/10/26 20:52:52;;;;;;;13.38;8.80;;;;;;;10.18;100.00;98625.30;4791817;59;1138870;-74
2023/10/26 20:57:58;;;;;;;11.67;9.07;;;;;;;10.11;100.00;98625.60;4791116;59;1141011;-76
2023/10/26 21:03:03;;;;;;;9.70;7.60;;;;;;;9.99;100.00;98625.09;4927086;57;1141160;-72
2023/10/26 21:08:15;;;;;;;11.63;7.77;;;;;;;9.99;100.00;98623.77;4792179;58;1136845;-75
2023/10/26 21:13:17;;;;;;;9.50;6.80;;;;;;;9.98;100.00;98620.80;4763514;60;1138854;-71
2023/10/26 21:18:23;;;;;;;10.88;7.70;;;;;;;10.04;100.00;98625.45;4910802;58;1136834;-74
2023/10/26 21:23:29;;;;;;;9.63;7.30;;;;;;;10.07;100.00;98630.41;4810159;60;1140889;-72
2023/10/26 21:28:37;;;;;;;11.50;6.97;;;;;;;10.12;100.00;98634.69;4802638;59;1138753;-75
2023/10/26 21:33:43;;;;;;;12.83;8.27;;;;;;;10.18;100.00;98634.09;4814042;59;1141361;-76
2023/10/26 21:38:50;;;;;;;14.75;8.50;;;;;;;10.10;100.00;98638.48;4809952;58;1140875;-70
2023/10/26 21:43:55;;;;;;;10.68;7.62;;;;;;;10.11;100.00;98646.73;4739822;57;1141006;-72
2023/10/26 21:49:01;;;;;;;11.73;7.87;;;;;;;10.03;100.00;98652.84;4734949;58;1140936;-75
2023/10/26 21:54:06;;;;;;;12.07;7.80;;;;;;;9.97;100.00;98651.33;4884211;58;1140792;-73
2023/10/26 21:59:12;;;;;;;11.60;7.63;;;;;;;9.97;100.00;98647.36;4770512;59;1138979;-73
2023/10/26 22:04:18;;;;;;;8.75;6.87;;;;;;;9.88;100.00;98641.24;4774969;58;1139154;-73
2023/10/26 22:09:23;;;;;;;10.47;7.27;;;;;;;9.96;100.00;98643.06;4748877;60;1136487;-73
2023/10/26 22:14:29;;;;;;;11.27;6.90;;;;;;;10.00;100.00;98643.91;4707102;59;1138822;-76
2023/10/26 22:19:36;;;;;;;11.90;7.90;;;;;;;10.05;100.00;98649.55;4888340;58;1140838;-74
2023/10/26 22:24:43;;;;;;;12.55;7.35;;;;;;;10.03;100.00;98646.23;4927461;58;1141015;-74
2023/10/26 22:29:48;;;;;;;8.65;6.50;;;;;;;9.93;100.00;98649.48;4798673;59;1141090;-73
2023/10/26 22:34:54;;;;;;;10.13;7.07;;;;;;;9.87;100.00;98651.47;4993365;57;1136760;-75
2023/10/26 22:40:00;;;;;;;10.75;7.50;;;;;;;9.82;100.00;98652.44;5012002;57;1138706;-74
2023/10/26 22:45:06;;;;;;;9.00;6.40;;;;;;;9.76;100.00;98651.77;4997058;58;1138818;-73
2023/10/26 22:50:12;;;;;;;7.33;6.07;;;;;;;9.75;100.00;98649.63;4988569;57;1136757;-74